Terminal Aerodrome Forecast
Issued by NWS Grand Forks, ND

Home | Current Version | Previous Version | Text Only | Print | Product List | Glossary Off
Versions: 1 2 3 4 5 6 7 8 9 10 11 12 13

000
FTUS43 KFGF 221600 AAA
TAFGFK
TAF AMD
KGFK 221600Z 2216/2312 18020G30KT P6SM FEW100 BKN250
     FM222000 19014G20KT P6SM BKN090
     FM222200 23014KT P6SM SCT050 BKN090
      TEMPO 2222/2224 -SHRA BKN050 BKN090=

USA.gov is the U.S. government's official web portal to all federal, state and local government web resources and services.